sensor_id;sensor_type;location;lat;lon;timestamp;P1;durP1;ratioP1;P2;durP2;ratioP2
61483;SDS011;47349;55.640;37.692;2022-12-18T00:01:18;23.58;;;12.05;;
61483;SDS011;47349;55.640;37.692;2022-12-18T00:03:45;24.83;;;10.93;;
61483;SDS011;47349;55.640;37.692;2022-12-18T00:06:13;26.13;;;11.95;;
61483;SDS011;47349;55.640;37.692;2022-12-18T00:08:41;24.15;;;11.57;;
61483;SDS011;47349;55.640;37.692;2022-12-18T00:11:11;23.60;;;11.35;;
61483;SDS011;47349;55.640;37.692;2022-12-18T00:13:40;23.15;;;12.15;;
61483;SDS011;47349;55.640;37.692;2022-12-18T00:16:09;29.55;;;13.45;;
61483;SDS011;47349;55.640;37.692;2022-12-18T00:18:38;24.00;;;11.20;;
61483;SDS011;47349;55.640;37.692;2022-12-18T00:21:07;23.63;;;12.18;;
61483;SDS011;47349;55.640;37.692;2022-12-18T00:23:36;22.30;;;10.82;;
61483;SDS011;47349;55.640;37.692;2022-12-18T00:26:05;21.52;;;10.32;;
61483;SDS011;47349;55.640;37.692;2022-12-18T00:28:48;20.92;;;10.77;;
61483;SDS011;47349;55.640;37.692;2022-12-18T00:31:17;21.75;;;10.60;;
61483;SDS011;47349;55.640;37.692;2022-12-18T00:33:48;20.38;;;9.93;;
61483;SDS011;47349;55.640;37.692;2022-12-18T00:36:22;19.75;;;9.55;;
61483;SDS011;47349;55.640;37.692;2022-12-18T00:38:51;26.45;;;11.27;;
61483;SDS011;47349;55.640;37.692;2022-12-18T00:41:20;24.10;;;10.63;;
61483;SDS011;47349;55.640;37.692;2022-12-18T00:44:08;21.67;;;10.32;;
61483;SDS011;47349;55.640;37.692;2022-12-18T00:46:37;19.15;;;9.95;;
61483;SDS011;47349;55.640;37.692;2022-12-18T00:49:04;22.20;;;10.57;;
61483;SDS011;47349;55.640;37.692;2022-12-18T00:53:58;19.75;;;10.07;;
61483;SDS011;47349;55.640;37.692;2022-12-18T00:58:53;21.83;;;8.77;;
61483;SDS011;47349;55.640;37.692;2022-12-18T01:01:20;17.55;;;8.95;;
61483;SDS011;47349;55.640;37.692;2022-12-18T01:03:47;23.80;;;9.20;;
61483;SDS011;47349;55.640;37.692;2022-12-18T01:06:15;17.48;;;8.88;;
61483;SDS011;47349;55.640;37.692;2022-12-18T01:08:43;19.42;;;9.48;;
61483;SDS011;47349;55.640;37.692;2022-12-18T01:11:14;25.38;;;10.15;;
61483;SDS011;47349;55.640;37.692;2022-12-18T01:13:44;17.65;;;8.50;;
61483;SDS011;47349;55.640;37.692;2022-12-18T01:16:15;20.13;;;10.10;;
61483;SDS011;47349;55.640;37.692;2022-12-18T01:18:43;21.55;;;10.13;;
61483;SDS011;47349;55.640;37.692;2022-12-18T01:21:11;17.67;;;9.18;;
61483;SDS011;47349;55.640;37.692;2022-12-18T01:23:40;23.02;;;10.63;;
61483;SDS011;47349;55.640;37.692;2022-12-18T01:26:09;17.35;;;9.15;;
61483;SDS011;47349;55.640;37.692;2022-12-18T01:28:38;19.35;;;10.68;;
61483;SDS011;47349;55.640;37.692;2022-12-18T01:31:17;17.38;;;8.65;;
61483;SDS011;47349;55.640;37.692;2022-12-18T01:33:55;18.55;;;9.32;;
61483;SDS011;47349;55.640;37.692;2022-12-18T01:36:24;16.45;;;9.35;;
61483;SDS011;47349;55.640;37.692;2022-12-18T01:38:52;18.08;;;8.52;;
61483;SDS011;47349;55.640;37.692;2022-12-18T01:41:21;18.40;;;10.18;;
61483;SDS011;47349;55.640;37.692;2022-12-18T01:43:53;19.73;;;8.60;;
61483;SDS011;47349;55.640;37.692;2022-12-18T01:46:26;15.23;;;8.55;;
61483;SDS011;47349;55.640;37.692;2022-12-18T01:48:59;14.93;;;8.98;;
61483;SDS011;47349;55.640;37.692;2022-12-18T01:51:28;13.77;;;7.88;;
61483;SDS011;47349;55.640;37.692;2022-12-18T01:53:57;14.38;;;8.93;;
61483;SDS011;47349;55.640;37.692;2022-12-18T01:56:26;18.77;;;8.07;;
61483;SDS011;47349;55.640;37.692;2022-12-18T01:59:00;19.55;;;9.48;;
61483;SDS011;47349;55.640;37.692;2022-12-18T02:04:20;13.75;;;7.55;;
61483;SDS011;47349;55.640;37.692;2022-12-18T02:07:04;16.95;;;9.18;;
61483;SDS011;47349;55.640;37.692;2022-12-18T02:09:42;18.23;;;8.38;;
61483;SDS011;47349;55.640;37.692;2022-12-18T02:12:22;22.63;;;8.68;;
61483;SDS011;47349;55.640;37.692;2022-12-18T02:14:55;12.95;;;8.00;;
61483;SDS011;47349;55.640;37.692;2022-12-18T02:18:17;12.00;;;7.35;;
61483;SDS011;47349;55.640;37.692;2022-12-18T02:20:40;14.73;;;8.32;;
61483;SDS011;47349;55.640;37.692;2022-12-18T02:23:30;15.07;;;8.75;;
61483;SDS011;47349;55.640;37.692;2022-12-18T02:26:26;13.85;;;8.60;;
61483;SDS011;47349;55.640;37.692;2022-12-18T02:31:49;12.00;;;7.65;;
61483;SDS011;47349;55.640;37.692;2022-12-18T02:34:20;15.75;;;8.30;;
61483;SDS011;47349;55.640;37.692;2022-12-18T02:36:53;12.13;;;7.68;;
61483;SDS011;47349;55.640;37.692;2022-12-18T02:39:22;13.00;;;7.82;;
61483;SDS011;47349;55.640;37.692;2022-12-18T02:42:02;17.98;;;8.02;;
61483;SDS011;47349;55.640;37.692;2022-12-18T02:44:35;14.63;;;8.88;;
61483;SDS011;47349;55.640;37.692;2022-12-18T02:47:11;17.05;;;9.05;;
61483;SDS011;47349;55.640;37.692;2022-12-18T02:52:24;12.80;;;6.88;;
61483;SDS011;47349;55.640;37.692;2022-12-18T02:55:23;16.08;;;9.27;;
61483;SDS011;47349;55.640;37.692;2022-12-18T02:58:18;13.43;;;7.82;;
61483;SDS011;47349;55.640;37.692;2022-12-18T03:06:11;11.02;;;8.02;;
61483;SDS011;47349;55.640;37.692;2022-12-18T03:08:47;11.20;;;6.72;;
61483;SDS011;47349;55.640;37.692;2022-12-18T03:11:25;13.75;;;8.05;;
61483;SDS011;47349;55.640;37.692;2022-12-18T03:14:19;12.77;;;8.55;;
61483;SDS011;47349;55.640;37.692;2022-12-18T03:16:49;20.13;;;9.50;;
61483;SDS011;47349;55.640;37.692;2022-12-18T03:19:20;10.48;;;6.75;;
61483;SDS011;47349;55.640;37.692;2022-12-18T03:21:55;10.40;;;7.30;;
61483;SDS011;47349;55.640;37.692;2022-12-18T03:24:25;12.77;;;8.07;;
61483;SDS011;47349;55.640;37.692;2022-12-18T03:26:57;11.68;;;7.10;;
61483;SDS011;47349;55.640;37.692;2022-12-18T03:29:33;11.43;;;7.60;;
61483;SDS011;47349;55.640;37.692;2022-12-18T03:32:14;12.05;;;7.63;;
61483;SDS011;47349;55.640;37.692;2022-12-18T03:34:49;12.88;;;6.80;;
61483;SDS011;47349;55.640;37.692;2022-12-18T03:37:21;14.63;;;7.75;;
61483;SDS011;47349;55.640;37.692;2022-12-18T03:39:51;9.43;;;6.38;;
61483;SDS011;47349;55.640;37.692;2022-12-18T03:42:25;12.10;;;7.90;;
61483;SDS011;47349;55.640;37.692;2022-12-18T03:48:06;13.50;;;8.27;;
61483;SDS011;47349;55.640;37.692;2022-12-18T03:56:36;10.02;;;5.93;;
61483;SDS011;47349;55.640;37.692;2022-12-18T03:59:08;14.85;;;7.30;;
61483;SDS011;47349;55.640;37.692;2022-12-18T04:01:39;14.02;;;8.00;;
61483;SDS011;47349;55.640;37.692;2022-12-18T04:04:13;14.85;;;7.95;;
61483;SDS011;47349;55.640;37.692;2022-12-18T04:06:43;15.00;;;7.68;;
61483;SDS011;47349;55.640;37.692;2022-12-18T04:09:13;12.23;;;7.07;;
61483;SDS011;47349;55.640;37.692;2022-12-18T04:11:45;15.63;;;7.95;;
61483;SDS011;47349;55.640;37.692;2022-12-18T04:14:15;10.27;;;6.95;;
61483;SDS011;47349;55.640;37.692;2022-12-18T04:16:46;14.95;;;7.00;;
61483;SDS011;47349;55.640;37.692;2022-12-18T04:19:16;13.98;;;7.00;;
61483;SDS011;47349;55.640;37.692;2022-12-18T04:21:46;10.70;;;7.28;;
61483;SDS011;47349;55.640;37.692;2022-12-18T04:24:13;13.15;;;7.57;;
61483;SDS011;47349;55.640;37.692;2022-12-18T04:26:50;11.95;;;6.88;;
61483;SDS011;47349;55.640;37.692;2022-12-18T04:29:23;16.10;;;6.75;;
61483;SDS011;47349;55.640;37.692;2022-12-18T04:31:51;11.85;;;6.65;;
61483;SDS011;47349;55.640;37.692;2022-12-18T04:34:19;10.73;;;7.50;;
61483;SDS011;47349;55.640;37.692;2022-12-18T04:36:50;10.57;;;6.57;;
61483;SDS011;47349;55.640;37.692;2022-12-18T04:39:19;12.02;;;6.22;;
61483;SDS011;47349;55.640;37.692;2022-12-18T04:41:48;14.35;;;6.80;;
61483;SDS011;47349;55.640;37.692;2022-12-18T04:44:17;8.10;;;5.80;;
61483;SDS011;47349;55.640;37.692;2022-12-18T04:46:44;7.85;;;5.20;;
61483;SDS011;47349;55.640;37.692;2022-12-18T04:51:41;10.15;;;6.50;;
61483;SDS011;47349;55.640;37.692;2022-12-18T04:54:18;7.75;;;6.47;;
61483;SDS011;47349;55.640;37.692;2022-12-18T04:56:49;11.45;;;6.13;;
61483;SDS011;47349;55.640;37.692;2022-12-18T04:59:15;9.13;;;6.28;;
61483;SDS011;47349;55.640;37.692;2022-12-18T05:04:10;8.73;;;5.43;;
61483;SDS011;47349;55.640;37.692;2022-12-18T05:06:37;10.65;;;7.20;;
61483;SDS011;47349;55.640;37.692;2022-12-18T05:11:31;7.00;;;5.65;;
61483;SDS011;47349;55.640;37.692;2022-12-18T05:16:25;10.98;;;6.30;;
61483;SDS011;47349;55.640;37.692;2022-12-18T05:21:19;11.55;;;7.22;;
61483;SDS011;47349;55.640;37.692;2022-12-18T05:26:17;9.68;;;6.35;;
61483;SDS011;47349;55.640;37.692;2022-12-18T05:28:44;10.55;;;6.35;;
61483;SDS011;47349;55.640;37.692;2022-12-18T05:31:12;7.68;;;5.20;;
61483;SDS011;47349;55.640;37.692;2022-12-18T05:33:40;11.50;;;6.05;;
61483;SDS011;47349;55.640;37.692;2022-12-18T05:36:08;10.48;;;6.70;;
61483;SDS011;47349;55.640;37.692;2022-12-18T05:38:36;8.68;;;6.32;;
61483;SDS011;47349;55.640;37.692;2022-12-18T05:41:05;13.18;;;6.25;;
61483;SDS011;47349;55.640;37.692;2022-12-18T05:43:33;8.70;;;6.45;;
61483;SDS011;47349;55.640;37.692;2022-12-18T05:46:03;7.72;;;5.10;;
61483;SDS011;47349;55.640;37.692;2022-12-18T05:48:35;7.53;;;6.20;;
61483;SDS011;47349;55.640;37.692;2022-12-18T05:51:05;12.40;;;6.88;;
61483;SDS011;47349;55.640;37.692;2022-12-18T05:53:35;8.77;;;5.75;;
61483;SDS011;47349;55.640;37.692;2022-12-18T05:56:04;10.98;;;5.97;;
61483;SDS011;47349;55.640;37.692;2022-12-18T05:58:33;12.00;;;5.60;;
61483;SDS011;47349;55.640;37.692;2022-12-18T06:01:10;10.48;;;6.68;;
61483;SDS011;47349;55.640;37.692;2022-12-18T06:03:37;7.78;;;5.00;;
61483;SDS011;47349;55.640;37.692;2022-12-18T06:06:12;7.45;;;5.25;;
61483;SDS011;47349;55.640;37.692;2022-12-18T06:08:43;10.00;;;6.38;;
61483;SDS011;47349;55.640;37.692;2022-12-18T06:11:12;11.43;;;6.05;;
61483;SDS011;47349;55.640;37.692;2022-12-18T06:13:39;12.05;;;5.55;;
61483;SDS011;47349;55.640;37.692;2022-12-18T06:16:07;5.88;;;4.35;;
61483;SDS011;47349;55.640;37.692;2022-12-18T06:18:37;9.82;;;6.68;;
61483;SDS011;47349;55.640;37.692;2022-12-18T06:21:05;5.78;;;4.55;;
61483;SDS011;47349;55.640;37.692;2022-12-18T06:26:02;10.73;;;6.00;;
61483;SDS011;47349;55.640;37.692;2022-12-18T06:28:33;8.40;;;5.50;;
61483;SDS011;47349;55.640;37.692;2022-12-18T06:31:00;10.77;;;5.45;;
61483;SDS011;47349;55.640;37.692;2022-12-18T06:33:30;10.95;;;7.07;;
61483;SDS011;47349;55.640;37.692;2022-12-18T06:36:08;8.00;;;5.32;;
61483;SDS011;47349;55.640;37.692;2022-12-18T06:38:38;8.30;;;5.13;;
61483;SDS011;47349;55.640;37.692;2022-12-18T06:41:13;10.45;;;6.45;;
61483;SDS011;47349;55.640;37.692;2022-12-18T06:43:42;12.55;;;6.22;;
61483;SDS011;47349;55.640;37.692;2022-12-18T06:46:10;7.63;;;4.65;;
61483;SDS011;47349;55.640;37.692;2022-12-18T06:48:38;11.52;;;6.70;;
61483;SDS011;47349;55.640;37.692;2022-12-18T06:51:05;9.95;;;6.30;;
61483;SDS011;47349;55.640;37.692;2022-12-18T06:53:33;11.35;;;6.35;;
61483;SDS011;47349;55.640;37.692;2022-12-18T06:56:03;7.18;;;4.80;;
61483;SDS011;47349;55.640;37.692;2022-12-18T06:58:36;15.45;;;5.90;;
61483;SDS011;47349;55.640;37.692;2022-12-18T07:01:05;10.55;;;6.03;;
61483;SDS011;47349;55.640;37.692;2022-12-18T07:03:34;9.02;;;5.75;;
61483;SDS011;47349;55.640;37.692;2022-12-18T07:06:02;10.23;;;6.13;;
61483;SDS011;47349;55.640;37.692;2022-12-18T07:10:57;8.52;;;5.50;;
61483;SDS011;47349;55.640;37.692;2022-12-18T07:13:25;10.32;;;5.55;;
61483;SDS011;47349;55.640;37.692;2022-12-18T07:15:53;8.10;;;5.07;;
61483;SDS011;47349;55.640;37.692;2022-12-18T07:20:47;13.45;;;6.45;;
61483;SDS011;47349;55.640;37.692;2022-12-18T07:23:14;6.07;;;4.05;;
61483;SDS011;47349;55.640;37.692;2022-12-18T07:25:41;7.93;;;5.00;;
61483;SDS011;47349;55.640;37.692;2022-12-18T07:30:42;9.20;;;6.18;;
61483;SDS011;47349;55.640;37.692;2022-12-18T07:33:09;10.15;;;6.60;;
61483;SDS011;47349;55.640;37.692;2022-12-18T07:38:03;10.75;;;5.70;;
61483;SDS011;47349;55.640;37.692;2022-12-18T07:40:30;9.68;;;6.35;;
61483;SDS011;47349;55.640;37.692;2022-12-18T07:45:43;8.40;;;4.80;;
61483;SDS011;47349;55.640;37.692;2022-12-18T07:48:10;8.98;;;5.80;;
61483;SDS011;47349;55.640;37.692;2022-12-18T07:50:37;7.47;;;5.18;;
61483;SDS011;47349;55.640;37.692;2022-12-18T07:53:04;11.38;;;5.90;;
61483;SDS011;47349;55.640;37.692;2022-12-18T07:55:32;10.50;;;6.25;;
61483;SDS011;47349;55.640;37.692;2022-12-18T07:58:19;12.63;;;6.45;;
61483;SDS011;47349;55.640;37.692;2022-12-18T08:00:47;8.93;;;6.07;;
61483;SDS011;47349;55.640;37.692;2022-12-18T08:05:43;10.43;;;6.80;;
61483;SDS011;47349;55.640;37.692;2022-12-18T08:08:10;10.13;;;6.82;;
61483;SDS011;47349;55.640;37.692;2022-12-18T08:10:38;8.60;;;5.75;;
61483;SDS011;47349;55.640;37.692;2022-12-18T08:13:06;9.68;;;6.00;;
61483;SDS011;47349;55.640;37.692;2022-12-18T08:15:33;12.52;;;7.22;;
61483;SDS011;47349;55.640;37.692;2022-12-18T08:18:00;14.00;;;6.18;;
61483;SDS011;47349;55.640;37.692;2022-12-18T08:20:27;6.75;;;5.38;;
61483;SDS011;47349;55.640;37.692;2022-12-18T08:22:54;12.77;;;7.03;;
61483;SDS011;47349;55.640;37.692;2022-12-18T08:25:21;10.20;;;5.93;;
61483;SDS011;47349;55.640;37.692;2022-12-18T08:27:48;8.98;;;6.82;;
61483;SDS011;47349;55.640;37.692;2022-12-18T08:32:43;10.17;;;6.43;;
61483;SDS011;47349;55.640;37.692;2022-12-18T08:40:05;8.93;;;5.82;;
61483;SDS011;47349;55.640;37.692;2022-12-18T08:42:33;9.40;;;6.60;;
61483;SDS011;47349;55.640;37.692;2022-12-18T08:45:19;10.55;;;6.10;;
61483;SDS011;47349;55.640;37.692;2022-12-18T08:47:46;10.65;;;6.63;;
61483;SDS011;47349;55.640;37.692;2022-12-18T08:52:41;9.40;;;6.65;;
61483;SDS011;47349;55.640;37.692;2022-12-18T08:57:35;8.50;;;5.47;;
61483;SDS011;47349;55.640;37.692;2022-12-18T09:02:30;8.63;;;5.70;;
61483;SDS011;47349;55.640;37.692;2022-12-18T09:04:57;12.80;;;7.55;;
61483;SDS011;47349;55.640;37.692;2022-12-18T09:07:24;9.23;;;5.80;;
61483;SDS011;47349;55.640;37.692;2022-12-18T09:09:52;11.98;;;6.93;;
61483;SDS011;47349;55.640;37.692;2022-12-18T09:14:46;8.38;;;5.95;;
61483;SDS011;47349;55.640;37.692;2022-12-18T09:17:13;8.63;;;6.40;;
61483;SDS011;47349;55.640;37.692;2022-12-18T09:22:07;8.68;;;6.13;;
61483;SDS011;47349;55.640;37.692;2022-12-18T09:24:34;11.60;;;7.20;;
61483;SDS011;47349;55.640;37.692;2022-12-18T09:27:02;8.32;;;6.30;;
61483;SDS011;47349;55.640;37.692;2022-12-18T09:29:29;10.20;;;5.65;;
61483;SDS011;47349;55.640;37.692;2022-12-18T09:31:56;8.68;;;6.35;;
61483;SDS011;47349;55.640;37.692;2022-12-18T09:34:26;7.57;;;5.88;;
61483;SDS011;47349;55.640;37.692;2022-12-18T09:39:20;8.98;;;6.28;;
61483;SDS011;47349;55.640;37.692;2022-12-18T09:41:56;6.78;;;4.97;;
61483;SDS011;47349;55.640;37.692;2022-12-18T09:44:26;8.43;;;5.72;;
61483;SDS011;47349;55.640;37.692;2022-12-18T09:47:03;8.07;;;5.50;;
61483;SDS011;47349;55.640;37.692;2022-12-18T09:49:42;6.53;;;5.35;;
61483;SDS011;47349;55.640;37.692;2022-12-18T09:52:57;8.60;;;5.93;;
61483;SDS011;47349;55.640;37.692;2022-12-18T09:55:11;8.43;;;4.78;;
61483;SDS011;47349;55.640;37.692;2022-12-18T09:57:47;7.95;;;5.50;;
61483;SDS011;47349;55.640;37.692;2022-12-18T10:00:20;9.40;;;6.43;;
61483;SDS011;47349;55.640;37.692;2022-12-18T10:02:53;8.13;;;5.95;;
61483;SDS011;47349;55.640;37.692;2022-12-18T10:05:30;8.38;;;6.20;;
61483;SDS011;47349;55.640;37.692;2022-12-18T10:08:10;9.18;;;6.18;;
61483;SDS011;47349;55.640;37.692;2022-12-18T10:10:59;6.85;;;5.45;;
61483;SDS011;47349;55.640;37.692;2022-12-18T10:13:46;8.52;;;5.30;;
61483;SDS011;47349;55.640;37.692;2022-12-18T10:19:24;9.73;;;5.33;;
61483;SDS011;47349;55.640;37.692;2022-12-18T10:27:33;9.48;;;5.97;;
61483;SDS011;47349;55.640;37.692;2022-12-18T10:30:04;9.55;;;5.72;;
61483;SDS011;47349;55.640;37.692;2022-12-18T10:32:39;10.35;;;6.20;;
61483;SDS011;47349;55.640;37.692;2022-12-18T10:35:25;7.63;;;5.53;;
61483;SDS011;47349;55.640;37.692;2022-12-18T10:40:30;8.57;;;5.60;;
61483;SDS011;47349;55.640;37.692;2022-12-18T10:43:05;7.72;;;5.30;;
61483;SDS011;47349;55.640;37.692;2022-12-18T10:45:37;8.85;;;5.78;;
61483;SDS011;47349;55.640;37.692;2022-12-18T10:48:17;7.55;;;5.72;;
61483;SDS011;47349;55.640;37.692;2022-12-18T10:50:50;9.07;;;6.32;;
61483;SDS011;47349;55.640;37.692;2022-12-18T10:53:38;8.70;;;5.00;;
61483;SDS011;47349;55.640;37.692;2022-12-18T10:56:08;9.05;;;5.10;;
61483;SDS011;47349;55.640;37.692;2022-12-18T10:58:37;8.68;;;4.85;;
61483;SDS011;47349;55.640;37.692;2022-12-18T11:01:16;11.32;;;5.78;;
61483;SDS011;47349;55.640;37.692;2022-12-18T11:03:58;10.52;;;4.93;;
61483;SDS011;47349;55.640;37.692;2022-12-18T11:06:28;8.27;;;5.65;;
61483;SDS011;47349;55.640;37.692;2022-12-18T11:09:03;10.70;;;5.70;;
61483;SDS011;47349;55.640;37.692;2022-12-18T11:11:42;13.50;;;5.95;;
61483;SDS011;47349;55.640;37.692;2022-12-18T11:17:28;12.13;;;6.40;;
61483;SDS011;47349;55.640;37.692;2022-12-18T11:19:58;9.70;;;6.00;;
61483;SDS011;47349;55.640;37.692;2022-12-18T11:22:34;11.93;;;7.18;;
61483;SDS011;47349;55.640;37.692;2022-12-18T11:28:02;12.43;;;6.90;;
61483;SDS011;47349;55.640;37.692;2022-12-18T11:30:32;10.68;;;6.80;;
61483;SDS011;47349;55.640;37.692;2022-12-18T11:33:04;9.48;;;5.93;;
61483;SDS011;47349;55.640;37.692;2022-12-18T11:35:50;10.77;;;6.18;;
61483;SDS011;47349;55.640;37.692;2022-12-18T11:38:23;6.60;;;4.32;;
61483;SDS011;47349;55.640;37.692;2022-12-18T11:40:58;10.50;;;6.10;;
61483;SDS011;47349;55.640;37.692;2022-12-18T11:46:10;10.30;;;5.68;;
61483;SDS011;47349;55.640;37.692;2022-12-18T11:48:47;9.40;;;6.10;;
61483;SDS011;47349;55.640;37.692;2022-12-18T11:51:22;8.38;;;5.43;;
61483;SDS011;47349;55.640;37.692;2022-12-18T11:53:55;9.15;;;5.82;;
61483;SDS011;47349;55.640;37.692;2022-12-18T11:56:35;10.73;;;6.22;;
61483;SDS011;47349;55.640;37.692;2022-12-18T11:59:14;8.38;;;5.18;;
61483;SDS011;47349;55.640;37.692;2022-12-18T12:05:26;12.50;;;6.72;;
61483;SDS011;47349;55.640;37.692;2022-12-18T12:10:33;10.35;;;6.40;;
61483;SDS011;47349;55.640;37.692;2022-12-18T12:16:24;7.10;;;5.60;;
61483;SDS011;47349;55.640;37.692;2022-12-18T12:21:44;8.75;;;5.82;;
61483;SDS011;47349;55.640;37.692;2022-12-18T12:27:13;7.43;;;4.77;;
61483;SDS011;47349;55.640;37.692;2022-12-18T12:41:14;7.83;;;5.60;;
61483;SDS011;47349;55.640;37.692;2022-12-18T12:44:05;5.63;;;4.47;;
61483;SDS011;47349;55.640;37.692;2022-12-18T12:46:37;8.32;;;5.22;;
61483;SDS011;47349;55.640;37.692;2022-12-18T12:49:17;7.95;;;5.47;;
61483;SDS011;47349;55.640;37.692;2022-12-18T12:51:52;12.10;;;4.35;;
61483;SDS011;47349;55.640;37.692;2022-12-18T12:54:39;7.03;;;4.30;;
61483;SDS011;47349;55.640;37.692;2022-12-18T12:57:09;8.10;;;5.10;;
61483;SDS011;47349;55.640;37.692;2022-12-18T13:06:00;7.00;;;5.22;;
61483;SDS011;47349;55.640;37.692;2022-12-18T13:11:42;9.32;;;6.28;;
61483;SDS011;47349;55.640;37.692;2022-12-18T13:14:30;6.55;;;3.88;;
61483;SDS011;47349;55.640;37.692;2022-12-18T13:22:35;8.05;;;5.10;;
61483;SDS011;47349;55.640;37.692;2022-12-18T13:28:00;9.93;;;5.50;;
61483;SDS011;47349;55.640;37.692;2022-12-18T13:33:46;7.53;;;4.28;;
61483;SDS011;47349;55.640;37.692;2022-12-18T13:46:00;11.07;;;5.90;;
61483;SDS011;47349;55.640;37.692;2022-12-18T13:48:33;13.88;;;7.45;;
61483;SDS011;47349;55.640;37.692;2022-12-18T13:51:06;10.27;;;6.22;;
61483;SDS011;47349;55.640;37.692;2022-12-18T13:56:42;12.90;;;7.95;;
61483;SDS011;47349;55.640;37.692;2022-12-18T13:59:20;12.63;;;6.13;;
61483;SDS011;47349;55.640;37.692;2022-12-18T14:01:55;17.30;;;9.77;;
61483;SDS011;47349;55.640;37.692;2022-12-18T14:04:28;16.58;;;9.45;;
61483;SDS011;47349;55.640;37.692;2022-12-18T14:10:01;15.15;;;7.18;;
61483;SDS011;47349;55.640;37.692;2022-12-18T14:12:50;13.73;;;7.95;;
61483;SDS011;47349;55.640;37.692;2022-12-18T14:17:57;21.00;;;9.95;;
61483;SDS011;47349;55.640;37.692;2022-12-18T14:20:28;21.85;;;8.70;;
61483;SDS011;47349;55.640;37.692;2022-12-18T14:22:58;14.85;;;8.38;;
61483;SDS011;47349;55.640;37.692;2022-12-18T14:25:27;19.05;;;8.80;;
61483;SDS011;47349;55.640;37.692;2022-12-18T14:30:41;13.65;;;8.48;;
61483;SDS011;47349;55.640;37.692;2022-12-18T14:35:42;22.10;;;9.60;;
61483;SDS011;47349;55.640;37.692;2022-12-18T14:41:00;17.80;;;8.48;;
61483;SDS011;47349;55.640;37.692;2022-12-18T14:43:31;16.13;;;8.73;;
61483;SDS011;47349;55.640;37.692;2022-12-18T14:46:25;14.48;;;8.07;;
61483;SDS011;47349;55.640;37.692;2022-12-18T14:48:57;16.80;;;8.52;;
61483;SDS011;47349;55.640;37.692;2022-12-18T14:56:45;12.45;;;6.90;;
61483;SDS011;47349;55.640;37.692;2022-12-18T14:59:24;14.98;;;6.97;;
61483;SDS011;47349;55.640;37.692;2022-12-18T15:04:46;14.82;;;8.82;;
61483;SDS011;47349;55.640;37.692;2022-12-18T15:07:21;12.20;;;8.27;;
61483;SDS011;47349;55.640;37.692;2022-12-18T15:18:03;7.13;;;4.85;;
61483;SDS011;47349;55.640;37.692;2022-12-18T15:20:50;11.20;;;6.50;;
61483;SDS011;47349;55.640;37.692;2022-12-18T15:23:23;13.07;;;5.65;;
61483;SDS011;47349;55.640;37.692;2022-12-18T15:26:00;6.85;;;4.82;;
61483;SDS011;47349;55.640;37.692;2022-12-18T15:36:19;9.38;;;5.45;;
61483;SDS011;47349;55.640;37.692;2022-12-18T15:38:53;9.00;;;5.45;;
61483;SDS011;47349;55.640;37.692;2022-12-18T15:41:30;11.93;;;6.13;;
61483;SDS011;47349;55.640;37.692;2022-12-18T15:44:02;9.07;;;5.03;;
61483;SDS011;47349;55.640;37.692;2022-12-18T15:46:46;9.95;;;5.72;;
61483;SDS011;47349;55.640;37.692;2022-12-18T15:49:13;6.85;;;5.45;;
61483;SDS011;47349;55.640;37.692;2022-12-18T15:51:41;10.07;;;5.32;;
61483;SDS011;47349;55.640;37.692;2022-12-18T15:54:13;9.10;;;6.38;;
61483;SDS011;47349;55.640;37.692;2022-12-18T15:56:43;10.35;;;4.97;;
61483;SDS011;47349;55.640;37.692;2022-12-18T15:59:32;11.13;;;5.85;;
61483;SDS011;47349;55.640;37.692;2022-12-18T16:02:00;6.47;;;4.90;;
61483;SDS011;47349;55.640;37.692;2022-12-18T16:04:29;7.35;;;5.53;;
61483;SDS011;47349;55.640;37.692;2022-12-18T16:06:58;9.43;;;6.80;;
61483;SDS011;47349;55.640;37.692;2022-12-18T16:09:48;8.77;;;4.65;;
61483;SDS011;47349;55.640;37.692;2022-12-18T16:12:22;8.25;;;5.68;;
61483;SDS011;47349;55.640;37.692;2022-12-18T16:14:53;10.27;;;5.82;;
61483;SDS011;47349;55.640;37.692;2022-12-18T16:17:20;7.47;;;5.13;;
61483;SDS011;47349;55.640;37.692;2022-12-18T16:19:55;10.10;;;6.55;;
61483;SDS011;47349;55.640;37.692;2022-12-18T16:22:23;10.25;;;5.28;;
61483;SDS011;47349;55.640;37.692;2022-12-18T16:24:55;10.23;;;5.43;;
61483;SDS011;47349;55.640;37.692;2022-12-18T16:27:24;8.90;;;5.72;;
61483;SDS011;47349;55.640;37.692;2022-12-18T16:29:53;9.43;;;6.53;;
61483;SDS011;47349;55.640;37.692;2022-12-18T16:32:20;8.55;;;5.53;;
61483;SDS011;47349;55.640;37.692;2022-12-18T16:34:50;7.22;;;5.40;;
61483;SDS011;47349;55.640;37.692;2022-12-18T16:37:19;10.02;;;6.07;;
61483;SDS011;47349;55.640;37.692;2022-12-18T16:39:49;11.45;;;7.22;;
61483;SDS011;47349;55.640;37.692;2022-12-18T16:42:17;11.00;;;6.60;;
61483;SDS011;47349;55.640;37.692;2022-12-18T16:44:47;7.65;;;5.40;;
61483;SDS011;47349;55.640;37.692;2022-12-18T16:47:16;8.23;;;6.45;;
61483;SDS011;47349;55.640;37.692;2022-12-18T16:49:45;6.05;;;5.45;;
61483;SDS011;47349;55.640;37.692;2022-12-18T16:52:15;8.57;;;6.10;;
61483;SDS011;47349;55.640;37.692;2022-12-18T16:54:43;10.43;;;6.95;;
61483;SDS011;47349;55.640;37.692;2022-12-18T16:57:15;7.45;;;5.68;;
61483;SDS011;47349;55.640;37.692;2022-12-18T16:59:43;10.35;;;5.43;;
61483;SDS011;47349;55.640;37.692;2022-12-18T17:02:12;9.63;;;5.40;;
61483;SDS011;47349;55.640;37.692;2022-12-18T17:04:44;7.55;;;5.45;;
61483;SDS011;47349;55.640;37.692;2022-12-18T17:07:12;11.90;;;6.60;;
61483;SDS011;47349;55.640;37.692;2022-12-18T17:09:42;13.00;;;7.65;;
61483;SDS011;47349;55.640;37.692;2022-12-18T17:12:10;15.05;;;8.50;;
61483;SDS011;47349;55.640;37.692;2022-12-18T17:14:37;10.32;;;6.38;;
61483;SDS011;47349;55.640;37.692;2022-12-18T17:17:05;12.23;;;6.50;;
61483;SDS011;47349;55.640;37.692;2022-12-18T17:22:20;9.52;;;6.63;;
61483;SDS011;47349;55.640;37.692;2022-12-18T17:24:49;10.23;;;5.85;;
61483;SDS011;47349;55.640;37.692;2022-12-18T17:27:16;13.68;;;7.40;;
61483;SDS011;47349;55.640;37.692;2022-12-18T17:29:46;11.02;;;7.22;;
61483;SDS011;47349;55.640;37.692;2022-12-18T17:32:15;14.25;;;9.05;;
61483;SDS011;47349;55.640;37.692;2022-12-18T17:34:45;16.80;;;8.50;;
61483;SDS011;47349;55.640;37.692;2022-12-18T17:37:13;17.13;;;8.70;;
61483;SDS011;47349;55.640;37.692;2022-12-18T17:39:40;14.30;;;7.93;;
61483;SDS011;47349;55.640;37.692;2022-12-18T17:42:08;12.23;;;6.82;;
61483;SDS011;47349;55.640;37.692;2022-12-18T17:44:41;10.05;;;7.18;;
61483;SDS011;47349;55.640;37.692;2022-12-18T17:47:10;17.98;;;9.90;;
61483;SDS011;47349;55.640;37.692;2022-12-18T17:49:39;16.25;;;8.43;;
61483;SDS011;47349;55.640;37.692;2022-12-18T17:52:07;13.55;;;7.90;;
61483;SDS011;47349;55.640;37.692;2022-12-18T17:54:34;12.63;;;7.38;;
61483;SDS011;47349;55.640;37.692;2022-12-18T17:57:05;11.63;;;6.97;;
61483;SDS011;47349;55.640;37.692;2022-12-18T17:59:35;12.95;;;7.32;;
61483;SDS011;47349;55.640;37.692;2022-12-18T18:02:02;8.40;;;5.70;;
61483;SDS011;47349;55.640;37.692;2022-12-18T18:04:30;10.32;;;7.22;;
61483;SDS011;47349;55.640;37.692;2022-12-18T18:06:57;14.93;;;8.05;;
61483;SDS011;47349;55.640;37.692;2022-12-18T18:11:52;9.38;;;6.28;;
61483;SDS011;47349;55.640;37.692;2022-12-18T18:14:39;12.20;;;7.50;;
61483;SDS011;47349;55.640;37.692;2022-12-18T18:17:06;10.73;;;6.47;;
61483;SDS011;47349;55.640;37.692;2022-12-18T18:19:33;9.27;;;6.10;;